createdAt,value
2016-08-29T00:00:48.496Z,-96
2016-08-29T00:01:48.541Z,-96
2016-08-29T00:02:48.637Z,-96
2016-08-29T00:03:48.649Z,-96
2016-08-29T00:04:48.728Z,-96
2016-08-29T00:05:48.639Z,-96
2016-08-29T00:06:48.567Z,-96
2016-08-29T00:07:48.605Z,-96
2016-08-29T00:08:49.185Z,-96
2016-08-29T00:09:48.617Z,-96
2016-08-29T00:10:48.492Z,-96
2016-08-29T00:11:48.511Z,-96
2016-08-29T00:12:48.573Z,-96
2016-08-29T00:13:48.466Z,-96
2016-08-29T00:14:48.571Z,-96
2016-08-29T00:15:48.640Z,-96
2016-08-29T00:16:48.557Z,-96
2016-08-29T00:17:48.564Z,-96
2016-08-29T00:18:48.584Z,-96
2016-08-29T00:19:48.440Z,-96
2016-08-29T00:20:49.234Z,-96
2016-08-29T00:21:48.443Z,-96
2016-08-29T00:22:48.521Z,-96
2016-08-29T00:23:48.669Z,-96
2016-08-29T00:24:48.596Z,-96
2016-08-29T00:25:48.582Z,-95
2016-08-29T00:26:48.600Z,-96
2016-08-29T00:27:48.512Z,-95
2016-08-29T00:28:48.501Z,-96
2016-08-29T00:29:48.487Z,-96
2016-08-29T00:30:48.564Z,-96
2016-08-29T00:31:48.605Z,-96
2016-08-29T00:32:48.582Z,-96
2016-08-29T00:33:48.502Z,-96
2016-08-29T00:34:48.544Z,-96
2016-08-29T00:35:48.678Z,-96
2016-08-29T00:36:48.607Z,-96
2016-08-29T00:37:48.707Z,-96
2016-08-29T00:38:48.520Z,-96
2016-08-29T00:39:48.604Z,-96
2016-08-29T00:40:48.628Z,-96
2016-08-29T00:41:48.630Z,-96
2016-08-29T00:42:48.603Z,-96
2016-08-29T00:43:48.548Z,-96
2016-08-29T00:44:49.169Z,-96
2016-08-29T00:45:48.614Z,-96
2016-08-29T00:46:48.573Z,-96
2016-08-29T00:47:48.680Z,-96
2016-08-29T00:48:48.531Z,-96
2016-08-29T00:49:48.524Z,-91
2016-08-29T00:50:48.625Z,-93
2016-08-29T00:51:48.555Z,-93
2016-08-29T00:52:48.616Z,-96
2016-08-29T00:53:48.690Z,-96
2016-08-29T00:54:48.556Z,-96
2016-08-29T00:55:48.621Z,-96
2016-08-29T00:56:48.717Z,-96
2016-08-29T00:57:48.491Z,-96
2016-08-29T00:58:48.545Z,-96
2016-08-29T00:59:48.802Z,-96
2016-08-29T01:00:49.055Z,-96
2016-08-29T01:01:48.662Z,-96
2016-08-29T01:02:48.634Z,-96
2016-08-29T01:03:48.727Z,-96
2016-08-29T01:04:48.560Z,-96
2016-08-29T01:05:48.594Z,-96
2016-08-29T01:06:48.573Z,-96
2016-08-29T01:07:48.577Z,-96
2016-08-29T01:08:48.669Z,-96
2016-08-29T01:09:48.555Z,-96
2016-08-29T01:10:48.571Z,-96
2016-08-29T01:11:48.672Z,-96
2016-08-29T01:12:48.489Z,-96
2016-08-29T01:13:48.747Z,-96
2016-08-29T01:14:48.498Z,-96
2016-08-29T01:15:48.500Z,-96
2016-08-29T01:16:49.231Z,-96
2016-08-29T01:17:48.734Z,-96
2016-08-29T01:18:48.583Z,-96
2016-08-29T01:19:48.740Z,-96
2016-08-29T01:20:48.512Z,-96
2016-08-29T01:21:48.647Z,-96
2016-08-29T01:22:48.651Z,-96
2016-08-29T01:23:48.505Z,-96
2016-08-29T01:24:48.672Z,-96
2016-08-29T01:25:48.688Z,-96
2016-08-29T01:26:48.591Z,-96
2016-08-29T01:27:48.663Z,-96
2016-08-29T01:28:48.651Z,-96
2016-08-29T01:29:48.938Z,-96
2016-08-29T01:30:48.658Z,-96
2016-08-29T01:31:48.512Z,-96
2016-08-29T01:32:49.342Z,-96
2016-08-29T01:33:48.693Z,-96
2016-08-29T01:34:48.665Z,-96
2016-08-29T01:35:48.613Z,-96
2016-08-29T01:36:48.602Z,-96
2016-08-29T01:37:48.689Z,-96
2016-08-29T01:38:48.690Z,-96
2016-08-29T01:39:48.757Z,-96
2016-08-29T01:40:48.620Z,-96
2016-08-29T01:41:48.767Z,-96
2016-08-29T01:42:48.545Z,-96
2016-08-29T01:43:48.525Z,-96
2016-08-29T01:44:48.602Z,-94
2016-08-29T01:45:48.612Z,-95
2016-08-29T01:46:48.550Z,-96
2016-08-29T01:47:48.680Z,-96
2016-08-29T01:48:49.206Z,-96
2016-08-29T01:49:48.607Z,-96
2016-08-29T01:50:48.631Z,-96
2016-08-29T01:51:49.488Z,-96
2016-08-29T01:52:48.630Z,-96
2016-08-29T01:53:48.769Z,-96
2016-08-29T01:54:48.703Z,-96
2016-08-29T01:55:48.576Z,-96
2016-08-29T01:56:49.447Z,-96
2016-08-29T01:57:48.727Z,-96
2016-08-29T01:58:48.657Z,-96
2016-08-29T01:59:48.914Z,-96
2016-08-29T02:00:48.713Z,-96
2016-08-29T02:01:48.652Z,-96
2016-08-29T02:02:48.632Z,-96
2016-08-29T02:03:48.699Z,-96
2016-08-29T02:04:49.318Z,-96
2016-08-29T02:05:49.376Z,-96
2016-08-29T02:06:48.754Z,-96
2016-08-29T02:07:48.741Z,-96
2016-08-29T02:08:48.654Z,-96
2016-08-29T02:09:48.654Z,-96
2016-08-29T02:10:48.738Z,-96
2016-08-29T02:11:48.720Z,-96
2016-08-29T02:12:48.741Z,-96
2016-08-29T02:13:48.745Z,-96
2016-08-29T02:14:48.818Z,-96
2016-08-29T02:15:48.640Z,-96
2016-08-29T02:16:48.726Z,-96
2016-08-29T02:17:48.763Z,-95
2016-08-29T02:18:48.802Z,-96
2016-08-29T02:19:48.715Z,-96
2016-08-29T02:20:49.570Z,-96
2016-08-29T02:21:48.622Z,-96
2016-08-29T02:22:48.667Z,-96
2016-08-29T02:23:48.744Z,-96
2016-08-29T02:24:48.708Z,-96
2016-08-29T02:25:48.673Z,-96
2016-08-29T02:26:48.839Z,-96
2016-08-29T02:27:48.823Z,-96
2016-08-29T02:28:49.077Z,-96
2016-08-29T02:29:48.676Z,-96
2016-08-29T02:30:48.616Z,-96
2016-08-29T02:31:48.839Z,-96
2016-08-29T02:32:48.691Z,-91
2016-08-29T02:33:48.702Z,-90
2016-08-29T02:34:48.655Z,-95
2016-08-29T02:35:48.677Z,-93
2016-08-29T02:36:48.835Z,-96
2016-08-29T02:37:48.768Z,-96
2016-08-29T02:38:48.773Z,-96
2016-08-29T02:39:48.698Z,-96
2016-08-29T02:40:48.771Z,-96
2016-08-29T02:41:48.595Z,-96
2016-08-29T02:42:48.702Z,-96
2016-08-29T02:43:48.711Z,-96
2016-08-29T02:44:48.768Z,-96
2016-08-29T02:45:48.676Z,-96
2016-08-29T02:46:48.701Z,-96
2016-08-29T02:47:48.768Z,-96
2016-08-29T02:48:48.691Z,-96
2016-08-29T02:49:48.762Z,-96
2016-08-29T02:50:48.710Z,-96
2016-08-29T02:51:48.694Z,-96
2016-08-29T02:52:48.784Z,-96
2016-08-29T02:53:48.639Z,-96
2016-08-29T02:54:48.781Z,-96
2016-08-29T02:55:48.771Z,-96
2016-08-29T02:56:48.709Z,-96
2016-08-29T02:57:48.699Z,-96
2016-08-29T02:58:48.813Z,-96
2016-08-29T02:59:48.789Z,-96
2016-08-29T03:00:49.514Z,-96
2016-08-29T03:01:48.786Z,-96
2016-08-29T03:02:48.723Z,-96
2016-08-29T03:03:48.626Z,-96
2016-08-29T03:04:48.724Z,-96
2016-08-29T03:05:48.730Z,-96
2016-08-29T03:06:48.737Z,-96
2016-08-29T03:07:48.746Z,-96
2016-08-29T03:08:50.871Z,-96
2016-08-29T03:09:48.722Z,-96
2016-08-29T03:10:48.802Z,-96
2016-08-29T03:11:48.839Z,-96
2016-08-29T03:12:48.808Z,-96
2016-08-29T03:13:48.876Z,-96
2016-08-29T03:14:48.737Z,-96
2016-08-29T03:15:48.662Z,-96
2016-08-29T03:16:49.717Z,-96
2016-08-29T03:17:49.805Z,-96
2016-08-29T03:18:48.736Z,-96
2016-08-29T03:19:48.744Z,-96
2016-08-29T03:20:48.741Z,-96
2016-08-29T03:21:48.804Z,-96
2016-08-29T03:22:48.910Z,-96
2016-08-29T03:23:48.809Z,-96
2016-08-29T03:24:48.864Z,-96
2016-08-29T03:25:48.832Z,-96
2016-08-29T03:26:48.810Z,-96
2016-08-29T03:27:48.882Z,-96
2016-08-29T03:28:48.847Z,-96
2016-08-29T03:29:48.822Z,-96
2016-08-29T03:30:48.809Z,-96
2016-08-29T03:31:48.906Z,-96
2016-08-29T03:32:48.826Z,-96
2016-08-29T03:33:48.839Z,-96
2016-08-29T03:34:48.835Z,-96
2016-08-29T03:35:48.827Z,-96
2016-08-29T03:36:48.766Z,-96
2016-08-29T03:37:48.686Z,-96
2016-08-29T03:38:48.749Z,-96
2016-08-29T03:39:48.895Z,-96
2016-08-29T03:40:49.535Z,-96
2016-08-29T03:41:48.887Z,-96
2016-08-29T03:42:48.774Z,-96
2016-08-29T03:43:48.870Z,-96
2016-08-29T03:44:48.846Z,-96
2016-08-29T03:45:48.761Z,-96
2016-08-29T03:46:48.731Z,-96
2016-08-29T03:47:48.786Z,-96
2016-08-29T03:48:48.770Z,-96
2016-08-29T03:49:48.870Z,-96
2016-08-29T03:50:48.789Z,-96
2016-08-29T03:51:48.788Z,-96
2016-08-29T03:52:48.850Z,-96
2016-08-29T03:53:48.796Z,-96
2016-08-29T03:54:48.866Z,-96
2016-08-29T03:55:48.934Z,-96
2016-08-29T03:56:48.872Z,-96
2016-08-29T03:57:48.773Z,-96
2016-08-29T03:58:48.785Z,-96
2016-08-29T03:59:48.882Z,-96
2016-08-29T04:00:48.978Z,-96
2016-08-29T04:01:48.886Z,-96
2016-08-29T04:02:48.766Z,-96
2016-08-29T04:03:48.951Z,-96
2016-08-29T04:04:49.032Z,-96
2016-08-29T04:05:48.819Z,-96
2016-08-29T04:06:48.872Z,-96
2016-08-29T04:07:49.392Z,-96
2016-08-29T04:08:52.780Z,-96
2016-08-29T04:09:48.884Z,-96
2016-08-29T04:10:48.887Z,-96
2016-08-29T04:11:48.736Z,-96
2016-08-29T04:12:48.896Z,-96
2016-08-29T04:13:48.798Z,-96
2016-08-29T04:14:49.777Z,-96
2016-08-29T04:15:48.884Z,-96
2016-08-29T04:16:48.903Z,-96
2016-08-29T04:17:48.797Z,-96
2016-08-29T04:18:48.978Z,-96
2016-08-29T04:19:48.825Z,-96
2016-08-29T04:20:48.965Z,-96
2016-08-29T04:21:48.988Z,-96
2016-08-29T04:22:48.851Z,-96
2016-08-29T04:23:48.975Z,-96
2016-08-29T04:24:48.900Z,-96
2016-08-29T04:25:48.840Z,-96
2016-08-29T04:26:48.829Z,-96
2016-08-29T04:27:48.905Z,-96
2016-08-29T04:28:49.645Z,-96
2016-08-29T04:29:48.784Z,-96
2016-08-29T04:30:48.825Z,-96
2016-08-29T04:31:48.884Z,-96
2016-08-29T04:32:48.864Z,-96
2016-08-29T04:33:48.938Z,-96
2016-08-29T04:34:48.857Z,-96
2016-08-29T04:35:48.848Z,-96
2016-08-29T04:36:48.827Z,-96
2016-08-29T04:37:48.868Z,-96
2016-08-29T04:38:48.844Z,-96
2016-08-29T04:39:49.648Z,-96
2016-08-29T04:40:48.941Z,-96
2016-08-29T04:41:48.845Z,-96
2016-08-29T04:42:49.690Z,-96
2016-08-29T04:43:48.761Z,-96
2016-08-29T04:44:48.926Z,-96
2016-08-29T04:45:48.928Z,-96
2016-08-29T04:46:48.843Z,-96
2016-08-29T04:47:48.922Z,-96
2016-08-29T04:48:50.604Z,-96
2016-08-29T04:49:48.917Z,-96
2016-08-29T04:50:48.959Z,-96
2016-08-29T04:51:48.820Z,-96
2016-08-29T04:52:50.527Z,-93
2016-08-29T04:53:49.018Z,-96
2016-08-29T04:54:48.872Z,-96
2016-08-29T04:55:48.909Z,-96
2016-08-29T04:56:49.161Z,-96
2016-08-29T04:57:51.579Z,-96
2016-08-29T04:58:49.957Z,-96
2016-08-29T04:59:49.218Z,-96
2016-08-29T05:00:49.218Z,-96
2016-08-29T05:01:49.175Z,-96
2016-08-29T05:02:49.021Z,-96
2016-08-29T05:03:48.972Z,-95
2016-08-29T05:04:48.957Z,-96
2016-08-29T05:05:48.973Z,-96
2016-08-29T05:06:48.807Z,-96
2016-08-29T05:07:49.086Z,-96
2016-08-29T05:08:48.901Z,-96
2016-08-29T05:09:48.899Z,-96
2016-08-29T05:10:49.092Z,-96
2016-08-29T05:11:48.900Z,-96
2016-08-29T05:12:48.900Z,-96
2016-08-29T05:13:48.821Z,-95
2016-08-29T05:14:48.920Z,-95
2016-08-29T05:15:48.817Z,-95
2016-08-29T05:16:49.885Z,-96
2016-08-29T05:17:48.902Z,-96
2016-08-29T05:18:48.924Z,-95
2016-08-29T05:19:49.063Z,-95
2016-08-29T05:20:48.915Z,-95
2016-08-29T05:21:48.994Z,-95
2016-08-29T05:22:48.904Z,-95
2016-08-29T05:23:48.897Z,-94
2016-08-29T05:24:49.647Z,-95
2016-08-29T05:25:48.995Z,-94
2016-08-29T05:26:48.964Z,-95
2016-08-29T05:27:49.002Z,-95
2016-08-29T05:28:49.279Z,-95
2016-08-29T05:29:48.859Z,-96
2016-08-29T05:30:48.996Z,-95
2016-08-29T05:31:48.863Z,-96
2016-08-29T05:32:49.801Z,-95
2016-08-29T05:33:48.927Z,-96
2016-08-29T05:34:48.947Z,-96
2016-08-29T05:35:49.372Z,-96
2016-08-29T05:36:49.066Z,-96
2016-08-29T05:37:48.999Z,-96
2016-08-29T05:38:49.098Z,-96
2016-08-29T05:39:48.917Z,-96
2016-08-29T05:40:50.010Z,-96
2016-08-29T05:41:48.945Z,-96
2016-08-29T05:42:48.870Z,-96
2016-08-29T05:43:48.921Z,-96
2016-08-29T05:44:49.077Z,-96
2016-08-29T05:45:49.001Z,-96
2016-08-29T05:46:49.015Z,-96
2016-08-29T05:47:49.020Z,-96
2016-08-29T05:48:48.886Z,-96
2016-08-29T05:49:49.019Z,-96
2016-08-29T05:50:48.871Z,-96
2016-08-29T05:51:49.581Z,-96
2016-08-29T05:52:49.061Z,-96
2016-08-29T05:53:49.023Z,-96
2016-08-29T05:54:48.906Z,-94
2016-08-29T05:55:49.071Z,-96
2016-08-29T05:56:49.125Z,-96
2016-08-29T05:57:48.982Z,-96
2016-08-29T05:58:49.004Z,-96
2016-08-29T05:59:49.253Z,-96
2016-08-29T06:00:49.074Z,-93
2016-08-29T06:01:49.247Z,-96
2016-08-29T06:02:49.749Z,-96
2016-08-29T06:03:49.133Z,-92
2016-08-29T06:04:49.701Z,-92
2016-08-29T06:05:49.730Z,-92
2016-08-29T06:06:49.741Z,-90
2016-08-29T06:07:49.055Z,-96
2016-08-29T06:08:55.103Z,-96
2016-08-29T06:09:48.986Z,-96
2016-08-29T06:10:49.767Z,-96
2016-08-29T06:11:49.164Z,-91
2016-08-29T06:12:49.848Z,-91
2016-08-29T06:15:20.780Z,-96
2016-08-29T06:17:54.612Z,-97
2016-08-29T06:45:46.766Z,-92
2016-08-29T06:46:44.258Z,-92
2016-08-29T06:47:44.361Z,-92
2016-08-29T06:54:45.182Z,-91
2016-08-29T06:55:43.347Z,-90
2016-08-29T07:05:10.357Z,-96
2016-08-29T07:05:19.389Z,-95
2016-08-29T07:06:18.758Z,-96
2016-08-29T07:07:17.623Z,-96
2016-08-29T07:08:18.638Z,-96
2016-08-29T07:09:18.360Z,-96
2016-08-29T07:10:26.227Z,-96
2016-08-29T07:13:20.949Z,-96
2016-08-29T07:14:19.589Z,-96
2016-08-29T07:15:18.914Z,-96
2016-08-29T07:16:17.349Z,-96
2016-08-29T07:17:17.553Z,-96
2016-08-29T07:18:17.590Z,-96
2016-08-29T07:19:17.467Z,-96
2016-08-29T07:20:17.488Z,-96
2016-08-29T07:21:17.604Z,-95
2016-08-29T07:22:17.336Z,-96
2016-08-29T07:23:17.403Z,-96
2016-08-29T07:24:17.486Z,-96
2016-08-29T07:25:18.605Z,-96
2016-08-29T07:26:17.478Z,-96
2016-08-29T07:27:18.049Z,-96
2016-08-29T07:28:17.305Z,-96
2016-08-29T07:29:18.295Z,-96
2016-08-29T07:30:17.410Z,-96
2016-08-29T07:31:17.513Z,-96
2016-08-29T07:32:17.458Z,-96
2016-08-29T07:33:17.577Z,-96
2016-08-29T07:34:18.524Z,-96
2016-08-29T07:35:17.336Z,-96
2016-08-29T07:36:17.318Z,-96
2016-08-29T07:37:17.303Z,-96
2016-08-29T07:38:17.392Z,-93
2016-08-29T07:39:17.895Z,-95
2016-08-29T07:40:18.266Z,-95
2016-08-29T07:41:18.231Z,-94
2016-08-29T07:42:17.402Z,-91
2016-08-29T07:43:18.098Z,-91
2016-08-29T07:44:17.982Z,-91
2016-08-29T07:45:17.497Z,-92
2016-08-29T07:46:18.029Z,-91
2016-08-29T07:47:18.811Z,-96
2016-08-29T07:48:17.343Z,-92
2016-08-29T07:49:17.454Z,-94
2016-08-29T07:50:17.544Z,-94
2016-08-29T07:51:17.429Z,-91
2016-08-29T07:52:17.507Z,-91
2016-08-29T07:54:18.509Z,-95
2016-08-29T07:55:17.379Z,-92
2016-08-29T07:56:17.440Z,-96
2016-08-29T07:57:17.341Z,-91
2016-08-29T07:58:17.296Z,-96
2016-08-29T07:59:18.504Z,-91
2016-08-29T08:00:17.588Z,-91
2016-08-29T08:01:18.010Z,-91
2016-08-29T08:02:17.412Z,-90
2016-08-29T08:03:36.527Z,-96
2016-08-29T08:04:19.430Z,-95
2016-08-29T08:11:21.418Z,-95
2016-08-29T08:12:18.149Z,-95
2016-08-29T08:13:21.142Z,-96
2016-08-29T08:14:18.658Z,-94
2016-08-29T08:15:18.767Z,-96
2016-08-29T08:16:18.259Z,-96
2016-08-29T08:17:19.130Z,-96
2016-08-29T08:18:19.604Z,-96
2016-08-29T08:19:18.732Z,-96
2016-08-29T08:20:18.822Z,-96
2016-08-29T08:21:20.497Z,-96
2016-08-29T08:22:18.567Z,-96
2016-08-29T08:23:18.312Z,-96
2016-08-29T08:24:19.520Z,-96
2016-08-29T08:25:19.125Z,-96
2016-08-29T08:26:24.492Z,-91
2016-08-29T08:28:23.117Z,-92
2016-08-29T08:29:20.403Z,-96
2016-08-29T08:30:18.592Z,-91
2016-08-29T08:31:18.456Z,-93
2016-08-29T08:32:18.815Z,-94
2016-08-29T08:38:20.001Z,-94
2016-08-29T08:39:20.877Z,-91
2016-08-29T08:40:19.861Z,-96
2016-08-29T08:41:19.677Z,-91
2016-08-29T08:42:21.946Z,-91
2016-08-29T09:21:33.411Z,-96
2016-08-29T09:22:20.186Z,-92
2016-08-29T09:25:25.786Z,-90
2016-08-29T09:36:29.456Z,-91
2016-08-29T12:08:26.329Z,-90
2016-08-29T12:09:21.219Z,-95
2016-08-29T12:10:20.466Z,-91
2016-08-29T12:11:18.917Z,-94
2016-08-29T12:12:19.334Z,-90
2016-08-29T12:13:20.413Z,-90
2016-08-29T12:18:20.934Z,-92
2016-08-29T12:19:19.000Z,-95
2016-08-29T12:20:20.338Z,-95
2016-08-29T12:21:18.974Z,-96
2016-08-29T12:23:34.858Z,-90
2016-08-29T12:24:21.537Z,-95
2016-08-29T12:25:20.312Z,-93
2016-08-29T12:26:19.815Z,-96
2016-08-29T12:27:20.181Z,-92
2016-08-29T12:28:20.099Z,-95
2016-08-29T12:29:22.923Z,-96
2016-08-29T12:30:20.752Z,-94
2016-08-29T12:31:20.710Z,-92
2016-08-29T12:32:19.909Z,-94
2016-08-29T12:33:20.711Z,-96
2016-08-29T12:34:18.811Z,-96
2016-08-29T12:35:21.271Z,-94
2016-08-29T12:36:20.858Z,-94
2016-08-29T12:37:17.971Z,-93
2016-08-29T12:38:17.989Z,-93
2016-08-29T12:39:18.143Z,-92
2016-08-29T12:40:18.304Z,-93
2016-08-29T12:41:18.104Z,-92
2016-08-29T12:42:18.766Z,-94
2016-08-29T12:43:19.260Z,-93
2016-08-29T12:44:19.214Z,-94
2016-08-29T12:45:19.137Z,-93
2016-08-29T12:46:18.070Z,-93
2016-08-29T12:47:18.122Z,-93
2016-08-29T12:48:18.058Z,-93
2016-08-29T12:49:18.030Z,-92
2016-08-29T12:50:17.958Z,-92
2016-08-29T12:51:18.148Z,-92
2016-08-29T12:52:18.299Z,-92
2016-08-29T12:53:18.107Z,-92
2016-08-29T12:54:18.224Z,-92
2016-08-29T12:55:18.222Z,-92
2016-08-29T12:56:18.639Z,-91
2016-08-29T12:57:18.011Z,-92
2016-08-29T12:58:18.107Z,-93
2016-08-29T12:59:18.029Z,-91
2016-08-29T13:00:18.597Z,-91
2016-08-29T13:01:17.974Z,-92
2016-08-29T13:02:18.155Z,-92
2016-08-29T13:03:21.628Z,-92
2016-08-29T13:04:18.149Z,-92
2016-08-29T13:05:18.245Z,-93
2016-08-29T13:06:18.110Z,-92
2016-08-29T13:07:18.089Z,-93
2016-08-29T13:08:18.131Z,-93
2016-08-29T13:09:18.191Z,-92
2016-08-29T13:10:18.116Z,-92
2016-08-29T13:11:17.924Z,-89
2016-08-29T13:12:18.146Z,-92
2016-08-29T13:13:18.047Z,-92
2016-08-29T13:14:18.771Z,-91
2016-08-29T13:15:18.136Z,-91
2016-08-29T13:16:18.146Z,-91
2016-08-29T13:17:18.079Z,-92
2016-08-29T13:18:18.520Z,-92
2016-08-29T13:19:18.141Z,-92
2016-08-29T13:20:18.138Z,-91
2016-08-29T13:21:18.004Z,-93
2016-08-29T13:22:19.488Z,-92
2016-08-29T13:23:19.233Z,-92
2016-08-29T13:24:21.607Z,-93
2016-08-29T13:25:19.295Z,-92
2016-08-29T13:26:19.480Z,-92
2016-08-29T13:27:18.020Z,-92
2016-08-29T13:28:18.174Z,-93
2016-08-29T13:29:18.045Z,-92
2016-08-29T13:30:19.798Z,-91
2016-08-29T13:31:18.098Z,-94
2016-08-29T13:32:18.068Z,-93
2016-08-29T13:33:18.089Z,-92
2016-08-29T13:34:18.163Z,-92
2016-08-29T13:35:18.043Z,-92
2016-08-29T13:36:18.220Z,-92
2016-08-29T13:37:18.107Z,-93
2016-08-29T13:38:18.194Z,-93
2016-08-29T13:39:18.041Z,-92
2016-08-29T13:40:18.185Z,-92
2016-08-29T13:41:18.118Z,-93
2016-08-29T13:42:18.172Z,-93
2016-08-29T13:43:18.214Z,-93
2016-08-29T13:44:18.173Z,-93
2016-08-29T13:45:18.209Z,-93
2016-08-29T13:46:18.070Z,-92
2016-08-29T13:47:18.071Z,-93
2016-08-29T13:48:18.822Z,-93
2016-08-29T13:49:18.166Z,-92
2016-08-29T13:50:18.538Z,-93
2016-08-29T13:51:18.215Z,-92
2016-08-29T13:52:18.265Z,-93
2016-08-29T13:53:18.248Z,-93
2016-08-29T13:54:18.156Z,-92
2016-08-29T13:55:18.695Z,-92
2016-08-29T13:56:18.267Z,-92
2016-08-29T13:57:18.920Z,-92
2016-08-29T13:58:18.707Z,-93
2016-08-29T13:59:18.226Z,-92
2016-08-29T14:00:18.138Z,-93
2016-08-29T14:01:18.159Z,-93
2016-08-29T14:02:18.203Z,-93
2016-08-29T14:03:18.175Z,-93
2016-08-29T14:04:18.165Z,-92
2016-08-29T14:05:19.975Z,-92
2016-08-29T14:06:20.279Z,-93
2016-08-29T14:07:19.606Z,-94
2016-08-29T14:08:19.124Z,-93
2016-08-29T14:09:20.369Z,-93
2016-08-29T14:10:18.875Z,-93
2016-08-29T14:11:18.726Z,-93
2016-08-29T14:12:18.633Z,-93
2016-08-29T14:13:18.952Z,-93
2016-08-29T14:14:18.198Z,-93
2016-08-29T14:15:18.134Z,-92
2016-08-29T14:16:18.234Z,-92
2016-08-29T14:17:18.129Z,-92
2016-08-29T14:18:18.206Z,-92
2016-08-29T14:19:18.100Z,-93
2016-08-29T14:20:18.168Z,-92
2016-08-29T14:21:18.010Z,-92
2016-08-29T14:22:18.112Z,-93
2016-08-29T14:23:18.113Z,-92
2016-08-29T14:24:18.042Z,-93
2016-08-29T14:25:18.098Z,-93
2016-08-29T14:26:18.216Z,-92
2016-08-29T14:27:18.139Z,-91
2016-08-29T14:28:18.198Z,-93
2016-08-29T14:29:18.026Z,-93
2016-08-29T14:30:18.344Z,-92
2016-08-29T14:31:18.248Z,-92
2016-08-29T14:32:18.102Z,-92
2016-08-29T14:33:18.166Z,-92
2016-08-29T14:34:18.056Z,-91
2016-08-29T14:35:18.251Z,-92
2016-08-29T14:36:18.217Z,-91
2016-08-29T14:37:18.180Z,-92
2016-08-29T14:38:18.275Z,-92
2016-08-29T14:39:18.272Z,-91
2016-08-29T14:40:18.268Z,-91
2016-08-29T14:41:18.125Z,-92
2016-08-29T14:42:19.441Z,-93
2016-08-29T14:43:18.470Z,-91
2016-08-29T14:44:18.254Z,-91
2016-08-29T14:45:18.451Z,-91
2016-08-29T14:46:18.239Z,-92
2016-08-29T14:47:18.138Z,-92
2016-08-29T14:48:18.409Z,-92
2016-08-29T14:49:18.162Z,-92
2016-08-29T14:50:18.138Z,-93
2016-08-29T14:51:18.378Z,-92
2016-08-29T14:52:18.229Z,-92
2016-08-29T14:53:18.844Z,-91
2016-08-29T14:54:18.236Z,-92
2016-08-29T14:55:18.352Z,-92
2016-08-29T14:56:18.160Z,-92
2016-08-29T14:57:18.318Z,-93
2016-08-29T14:58:18.816Z,-93
2016-08-29T14:59:18.181Z,-91
2016-08-29T15:00:18.929Z,-93
2016-08-29T15:01:18.258Z,-92
2016-08-29T15:02:18.178Z,-92
2016-08-29T15:03:18.220Z,-92
2016-08-29T15:04:18.192Z,-91
2016-08-29T15:05:18.267Z,-92
2016-08-29T15:06:18.201Z,-92
2016-08-29T15:07:18.427Z,-91
2016-08-29T15:08:18.271Z,-92
2016-08-29T15:09:18.793Z,-92
2016-08-29T15:10:18.089Z,-92
2016-08-29T15:11:18.298Z,-92
2016-08-29T15:12:18.177Z,-92
2016-08-29T15:13:18.436Z,-91
2016-08-29T15:14:18.290Z,-91
2016-08-29T15:15:18.280Z,-90
2016-08-29T15:16:18.181Z,-90
2016-08-29T15:17:18.194Z,-92
2016-08-29T15:18:18.373Z,-91
2016-08-29T15:19:18.211Z,-91
2016-08-29T15:20:18.308Z,-90
2016-08-29T15:21:18.342Z,-91
2016-08-29T15:22:18.291Z,-92
2016-08-29T15:23:18.114Z,-91
2016-08-29T15:24:18.119Z,-90
2016-08-29T15:25:18.302Z,-91
2016-08-29T15:26:18.205Z,-92
2016-08-29T15:27:18.206Z,-92
2016-08-29T15:28:18.267Z,-92
2016-08-29T15:29:18.207Z,-92
2016-08-29T15:30:18.235Z,-92
2016-08-29T15:31:18.274Z,-91
2016-08-29T15:32:18.212Z,-92
2016-08-29T15:33:18.219Z,-92
2016-08-29T15:34:18.353Z,-91
2016-08-29T15:35:18.754Z,-91
2016-08-29T15:36:18.249Z,-90
2016-08-29T15:37:18.325Z,-91
2016-08-29T15:38:18.134Z,-92
2016-08-29T15:39:18.201Z,-92
2016-08-29T15:40:18.391Z,-92
2016-08-29T15:41:18.384Z,-92
2016-08-29T15:42:18.222Z,-92
2016-08-29T15:43:18.238Z,-92
2016-08-29T15:44:18.221Z,-92
2016-08-29T15:45:18.319Z,-92
2016-08-29T15:46:18.341Z,-90
2016-08-29T15:47:18.254Z,-92
2016-08-29T15:48:18.376Z,-91
2016-08-29T15:49:18.530Z,-92
2016-08-29T15:50:18.234Z,-92
2016-08-29T15:51:18.247Z,-92
2016-08-29T15:52:18.364Z,-91
2016-08-29T15:53:18.167Z,-92
2016-08-29T15:54:18.657Z,-92
2016-08-29T15:55:18.374Z,-92
2016-08-29T15:56:18.260Z,-89
2016-08-29T15:57:18.234Z,-90
2016-08-29T15:58:18.222Z,-93
2016-08-29T15:59:18.207Z,-92
2016-08-29T16:00:18.249Z,-92
2016-08-29T16:01:18.311Z,-92
2016-08-29T16:02:18.168Z,-91
2016-08-29T16:03:18.251Z,-91
2016-08-29T16:04:18.310Z,-92
2016-08-29T16:05:18.444Z,-92
2016-08-29T16:06:18.248Z,-91
2016-08-29T16:07:18.284Z,-92
2016-08-29T16:08:18.329Z,-92
2016-08-29T16:09:18.551Z,-92
2016-08-29T16:10:18.422Z,-92
2016-08-29T16:11:18.269Z,-92
2016-08-29T16:12:18.357Z,-92
2016-08-29T16:13:18.265Z,-92
2016-08-29T16:14:18.254Z,-92
2016-08-29T16:15:18.699Z,-92
2016-08-29T16:16:18.353Z,-92
2016-08-29T16:17:18.215Z,-92
2016-08-29T16:18:18.265Z,-92
2016-08-29T16:19:18.356Z,-93
2016-08-29T16:20:19.072Z,-92
2016-08-29T16:21:18.266Z,-92
2016-08-29T16:22:18.285Z,-91
2016-08-29T16:23:18.434Z,-92
2016-08-29T16:24:18.364Z,-91
2016-08-29T16:25:18.256Z,-92
2016-08-29T16:26:18.195Z,-91
2016-08-29T16:27:18.467Z,-91
2016-08-29T16:28:18.274Z,-92
2016-08-29T16:29:19.028Z,-92
2016-08-29T16:30:18.292Z,-92
2016-08-29T16:31:18.373Z,-91
2016-08-29T16:32:18.388Z,-91
2016-08-29T16:33:18.253Z,-92
2016-08-29T16:34:18.312Z,-91
2016-08-29T16:35:18.716Z,-92
2016-08-29T16:36:18.319Z,-91
2016-08-29T16:37:18.394Z,-92
2016-08-29T16:38:18.293Z,-91
2016-08-29T16:39:18.471Z,-92
2016-08-29T16:40:18.631Z,-91
2016-08-29T16:41:18.284Z,-91
2016-08-29T16:42:18.298Z,-91
2016-08-29T16:43:18.321Z,-91
2016-08-29T16:44:18.314Z,-91
2016-08-29T16:45:18.556Z,-91
2016-08-29T16:46:18.338Z,-90
2016-08-29T16:47:18.308Z,-91
2016-08-29T16:48:18.470Z,-91
2016-08-29T16:49:18.431Z,-91
2016-08-29T16:50:18.389Z,-92
2016-08-29T16:51:18.344Z,-92
2016-08-29T16:52:18.251Z,-91
2016-08-29T16:53:18.345Z,-91
2016-08-29T16:54:18.402Z,-92
2016-08-29T16:55:18.434Z,-92
2016-08-29T16:56:18.430Z,-92
2016-08-29T16:57:18.266Z,-92
2016-08-29T16:58:18.382Z,-92
2016-08-29T16:59:18.395Z,-90
2016-08-29T17:00:18.321Z,-91
2016-08-29T17:01:19.002Z,-91
2016-08-29T17:02:18.348Z,-90
2016-08-29T17:03:18.333Z,-92
2016-08-29T17:04:18.338Z,-92
2016-08-29T17:05:18.561Z,-91
2016-08-29T17:06:18.334Z,-92
2016-08-29T17:07:18.426Z,-91
2016-08-29T17:08:18.416Z,-92
2016-08-29T17:09:18.567Z,-92
2016-08-29T17:10:18.347Z,-91
2016-08-29T17:11:18.262Z,-92
2016-08-29T17:12:18.347Z,-91
2016-08-29T17:13:18.543Z,-93
2016-08-29T17:14:18.490Z,-92
2016-08-29T17:15:18.354Z,-92
2016-08-29T17:16:18.357Z,-92
2016-08-29T17:17:18.358Z,-91
2016-08-29T17:18:18.362Z,-91
2016-08-29T17:19:18.350Z,-90
2016-08-29T17:20:18.398Z,-91
2016-08-29T17:21:18.356Z,-90
2016-08-29T17:22:18.374Z,-91
2016-08-29T17:23:19.177Z,-91
2016-08-29T17:24:18.352Z,-92
2016-08-29T17:25:18.579Z,-91
2016-08-29T17:26:18.281Z,-91
2016-08-29T17:27:18.474Z,-92
2016-08-29T17:28:18.501Z,-91
2016-08-29T17:29:18.404Z,-91
2016-08-29T17:30:18.415Z,-90
2016-08-29T17:31:18.298Z,-91
2016-08-29T17:32:18.476Z,-91
2016-08-29T17:33:18.848Z,-92
2016-08-29T17:34:18.569Z,-90
2016-08-29T17:35:18.369Z,-92
2016-08-29T17:36:18.372Z,-91
2016-08-29T17:37:18.464Z,-92
2016-08-29T17:38:18.445Z,-91
2016-08-29T17:39:18.498Z,-91
2016-08-29T17:40:18.676Z,-91
2016-08-29T17:41:18.468Z,-90
2016-08-29T17:42:18.556Z,-91
2016-08-29T17:43:18.434Z,-91
2016-08-29T17:44:18.484Z,-91
2016-08-29T17:45:18.400Z,-91
2016-08-29T17:46:18.536Z,-92
2016-08-29T17:47:18.445Z,-90
2016-08-29T17:48:18.339Z,-91
2016-08-29T17:49:18.441Z,-91
2016-08-29T17:50:18.433Z,-91
2016-08-29T17:51:18.444Z,-92
2016-08-29T17:52:18.503Z,-91
2016-08-29T17:53:18.474Z,-91
2016-08-29T17:54:18.405Z,-92
2016-08-29T17:55:18.782Z,-91
2016-08-29T17:56:18.405Z,-89
2016-08-29T17:57:18.426Z,-90
2016-08-29T17:58:18.321Z,-87
2016-08-29T17:59:18.410Z,-85
2016-08-29T18:00:18.519Z,-84
2016-08-29T18:01:18.572Z,-85
2016-08-29T18:02:18.463Z,-85
2016-08-29T18:03:18.493Z,-85
2016-08-29T18:04:18.487Z,-85
2016-08-29T18:05:19.106Z,-84
2016-08-29T18:06:18.474Z,-85
2016-08-29T18:07:18.490Z,-85
2016-08-29T18:08:18.584Z,-85
2016-08-29T18:09:18.406Z,-85
2016-08-29T18:10:18.863Z,-85
2016-08-29T18:11:18.410Z,-85